Bennett, Iowa
Current Conditions -  °F | °C
As of 2:52 AM on Wednesday 26 Nov 2014 (Local Time) from KDVN Reporting Station
Clear Clear  
Wind Chill:   Ceiling: Unl
Heat Index: 17°   Visibility: 7mi
Dew Point: 13°   Wind: 8mph
Humidity: 84%   Direction: 110°ESE
Pressure: 30.1"   Gusts: NA
Location:  41.74°N, 90.97°W
Report Text: KDVN 260852Z AUTO 11007KT 7SM CLR M08/M11 A3010 RMK AO2 SLP204 I3000 T10831106 56011
Loading
Personal Weather Stations






























Interactive Weather Map New forecast layout! Learn more

10-Day Weather Forecast

Advertisements
Track Severe Weather on mobile